Terminal Aerodrome Forecast
Issued by NWS

Home | Current Version | Previous Version | Text Only | Print | Product List | Glossary On
Versions: 1 2 3 4 5 6 7 8 9 10 11 12 13 14 15 16 17 18 19 20 21 22 23 24
000
FTUS41 KCLE 260500
TAFFDY
TAF
KFDY 260527Z 2606/2706 03014G22KT 2SM -SN SCT015 OVC035
      TEMPO 2606/2609 1SM -SN OVC015
     FM260900 02011KT 6SM -SN SCT015 OVC035
      TEMPO 2609/2612 4SM -SN OVC015
     FM261200 02010KT P6SM SCT025 OVC060
     FM261800 36010KT P6SM SCT045 BKN250
     FM270200 34004KT P6SM BKN120=

USA.gov is the U.S. government's official web portal to all federal, state and local government web resources and services.